Terminal Aerodrome Forecast
Issued by NWS Missoula, MT

Home | Current Version | Previous Version | Text Only | Print | Product List | Glossary On
Versions: 1 2 3 4 5 6 7 8 9 10 11 12 13 14 15
541
FTUS45 KMSO 300521
TAFGPI
TAF
KGPI 300521Z 3006/0106 VRB03KT P6SM SCT100 SCT120
     FM301000 VRB03KT P6SM VCSH OVC100
     FM301400 14003KT P6SM OVC250
     FM301800 18007KT P6SM BKN100=

USA.gov is the U.S. government's official web portal to all federal, state and local government web resources and services.